Time;durP1;ratioP1;P1;durP2;ratioP2;P2;SDS_P1;SDS_P2;PMS_P1;PMS_P2;Temp;Humidity;BMP_temperature;BMP_pressure;BME280_temperature;BME280_humidity;BME280_pressure;Samples;Min_cycle;Max_cycle;Signal;HPM_P1;HPM_P2
2022/06/17 00:03:16;;;;;;;;;;;18.10;99.90;;;;;;8326441;28;19940;-72
2022/06/17 00:07:18;;;;;;;;;;;18.10;99.90;;;;;;8341285;28;19929;-72
2022/06/17 00:11:22;;;;;;;;;;;18.10;99.90;;;;;;8341683;28;19956;-72
2022/06/17 00:15:24;;;;;;;;;;;18.10;99.90;;;;;;8333120;28;20035;-72
2022/06/17 00:19:25;;;;;;;;;;;18.10;99.90;;;;;;8328383;28;19928;-72
2022/06/17 00:23:27;;;;;;;;;;;18.10;99.90;;;;;;8323829;28;19932;-72
2022/06/17 00:27:29;;;;;;;;;;;18.10;99.90;;;;;;8308388;28;19932;-72
2022/06/17 00:31:30;;;;;;;;;;;18.10;99.90;;;;;;8347754;28;19932;-72
2022/06/17 00:35:34;;;;;;;;;;;18.00;99.90;;;;;;8343971;28;19951;-72
2022/06/17 00:39:36;;;;;;;;;;;18.00;99.90;;;;;;8329725;28;19933;-72
2022/06/17 00:43:39;;;;;;;;;;;18.00;99.90;;;;;;8330127;28;19972;-72
2022/06/17 00:47:44;;;;;;;;;;;18.00;99.90;;;;;;8352326;28;19933;-71
2022/06/17 00:51:56;;;;;;;;;;;18.00;99.90;;;;;;8361338;28;20431;-71
2022/06/17 01:01:02;;;;;;;;;;;17.90;99.90;;;;;;8364164;28;20023;-72
2022/06/17 01:05:04;;;;;;;;;;;17.80;99.90;;;;;;8365223;28;20368;-72
2022/06/17 01:13:29;;;;;;;;;;;17.70;99.90;;;;;;8376331;28;19925;-71
2022/06/17 01:17:32;;;;;;;;;;;17.70;99.90;;;;;;8382240;28;20020;-72
2022/06/17 01:21:39;;;;;;;;;;;17.70;99.90;;;;;;8374437;28;19932;-72
2022/06/17 01:25:43;;;;;;;;;;;17.60;99.90;;;;;;8364070;28;19928;-72
2022/06/17 01:29:45;;;;;;;;;;;17.60;99.90;;;;;;8362491;28;19928;-72
2022/06/17 01:33:47;;;;;;;;;;;17.50;99.90;;;;;;8376868;28;19928;-72
2022/06/17 01:37:49;;;;;;;;;;;17.50;99.90;;;;;;8370299;28;21937;-71
2022/06/17 01:41:52;;;;;;;;;;;17.50;99.90;;;;;;8365283;28;20323;-71
2022/06/17 01:46:04;;;;;;;;;;;17.40;99.90;;;;;;8363042;28;19924;-72
2022/06/17 01:50:08;;;;;;;;;;;17.40;99.90;;;;;;8372338;28;20139;-71
2022/06/17 01:54:17;;;;;;;;;;;17.40;99.90;;;;;;8367669;28;19928;-72
2022/06/17 01:58:22;;;;;;;;;;;17.40;99.90;;;;;;8360939;28;19931;-72
2022/06/17 02:02:25;;;;;;;;;;;17.30;99.90;;;;;;8369111;28;20159;-72
2022/06/17 02:06:30;;;;;;;;;;;17.30;99.90;;;;;;8380797;28;20019;-72
2022/06/17 02:10:33;;;;;;;;;;;17.20;99.90;;;;;;8367660;28;20281;-72
2022/06/17 02:14:35;;;;;;;;;;;17.20;99.90;;;;;;8367996;28;19950;-72
2022/06/17 02:18:38;;;;;;;;;;;17.20;99.90;;;;;;8365995;28;19961;-72
2022/06/17 02:22:39;;;;;;;;;;;17.10;99.90;;;;;;8401626;27;19932;-72
2022/06/17 02:26:44;;;;;;;;;;;17.10;99.90;;;;;;8373102;28;20396;-72
2022/06/17 02:30:46;;;;;;;;;;;17.10;99.90;;;;;;8376306;28;20304;-72
2022/06/17 02:34:54;;;;;;;;;;;17.10;99.90;;;;;;8376765;28;20012;-72
2022/06/17 02:38:55;;;;;;;;;;;17.20;99.90;;;;;;8371362;28;20356;-72
2022/06/17 02:42:59;;;;;;;;;;;17.20;99.90;;;;;;8365000;28;20356;-72
2022/06/17 02:47:01;;;;;;;;;;;17.20;99.90;;;;;;8363942;28;19928;-72
2022/06/17 02:51:03;;;;;;;;;;;17.20;99.90;;;;;;8340295;28;19929;-72
2022/06/17 02:55:14;;;;;;;;;;;17.10;99.90;;;;;;8348422;28;19925;-71
2022/06/17 02:59:29;;;;;;;;;;;17.00;99.90;;;;;;8353363;28;19925;-72
2022/06/17 03:03:31;;;;;;;;;;;17.00;99.90;;;;;;8347070;28;19925;-72
2022/06/17 03:07:33;;;;;;;;;;;16.90;99.90;;;;;;8321562;28;20344;-71
2022/06/17 03:11:34;;;;;;;;;;;16.90;99.90;;;;;;8354840;28;19928;-72
2022/06/17 03:15:40;;;;;;;;;;;16.80;99.90;;;;;;8353697;28;19924;-72
2022/06/17 03:19:44;;;;;;;;;;;16.80;99.90;;;;;;8361190;28;19924;-72
2022/06/17 03:23:53;;;;;;;;;;;16.80;99.90;;;;;;8333050;28;20580;-72
2022/06/17 03:28:07;;;;;;;;;;;16.70;99.90;;;;;;8361109;28;20348;-71
2022/06/17 03:32:13;;;;;;;;;;;16.70;99.90;;;;;;8345481;28;19929;-72
2022/06/17 03:36:23;;;;;;;;;;;16.80;99.90;;;;;;8362093;28;20372;-72
2022/06/17 03:40:33;;;;;;;;;;;16.70;99.90;;;;;;8342307;28;19932;-72
2022/06/17 03:44:39;;;;;;;;;;;16.70;99.90;;;;;;8348664;28;19937;-72
2022/06/17 03:49:01;;;;;;;;;;;16.80;99.90;;;;;;8417162;28;19924;-72
2022/06/17 03:53:05;;;;;;;;;;;16.80;99.90;;;;;;8367294;28;19932;-71
2022/06/17 03:57:08;;;;;;;;;;;16.90;99.90;;;;;;8381800;28;19932;-71
2022/06/17 04:01:16;;;;;;;;;;;16.90;99.90;;;;;;8371443;28;19929;-72
2022/06/17 04:05:20;;;;;;;;;;;16.90;99.90;;;;;;8376121;28;20747;-71
2022/06/17 04:09:26;;;;;;;;;;;17.00;99.90;;;;;;8383551;28;19928;-71
2022/06/17 04:13:31;;;;;;;;;;;17.00;99.90;;;;;;8376507;28;19955;-71
2022/06/17 04:17:40;;;;;;;;;;;17.00;99.90;;;;;;8381949;28;20372;-71
2022/06/17 04:21:41;;;;;;;;;;;17.10;99.90;;;;;;8381169;28;19925;-71
2022/06/17 04:25:49;;;;;;;;;;;17.10;99.90;;;;;;8378607;28;19924;-71
2022/06/17 04:29:53;;;;;;;;;;;17.20;99.90;;;;;;8374285;28;20323;-71
2022/06/17 04:33:58;;;;;;;;;;;17.20;99.90;;;;;;8374442;28;19924;-72
2022/06/17 04:38:00;;;;;;;;;;;17.20;99.90;;;;;;8384263;28;20292;-72
2022/06/17 04:42:04;;;;;;;;;;;17.20;99.90;;;;;;8389713;28;19924;-71
2022/06/17 04:46:09;;;;;;;;;;;17.20;99.90;;;;;;8396370;28;20399;-72
2022/06/17 04:50:12;;;;;;;;;;;17.30;99.90;;;;;;8394841;28;20439;-72
2022/06/17 04:54:14;;;;;;;;;;;17.30;99.90;;;;;;8407712;28;20380;-71
2022/06/17 04:58:18;;;;;;;;;;;17.40;99.90;;;;;;8400423;28;19924;-72
2022/06/17 05:02:21;;;;;;;;;;;17.40;99.90;;;;;;8397519;28;19925;-72
2022/06/17 05:06:23;;;;;;;;;;;17.50;99.90;;;;;;8385439;28;19935;-71
2022/06/17 05:10:27;;;;;;;;;;;17.50;99.90;;;;;;8373272;28;19932;-72
2022/06/17 05:14:46;;;;;;;;;;;17.60;99.90;;;;;;8396221;28;19947;-71
2022/06/17 05:18:47;;;;;;;;;;;17.60;99.90;;;;;;8391663;28;20727;-72
2022/06/17 05:22:52;;;;;;;;;;;17.70;99.90;;;;;;8413679;28;19977;-72
2022/06/17 05:26:54;;;;;;;;;;;17.80;99.90;;;;;;8394853;28;19944;-71
2022/06/17 05:30:56;;;;;;;;;;;17.80;99.90;;;;;;8390658;28;20376;-71
2022/06/17 05:34:58;;;;;;;;;;;17.90;99.90;;;;;;8389819;28;20300;-71
2022/06/17 05:39:00;;;;;;;;;;;18.00;99.90;;;;;;8411068;28;19925;-72
2022/06/17 05:43:01;;;;;;;;;;;18.00;99.90;;;;;;8393405;28;19924;-71
2022/06/17 05:47:03;;;;;;;;;;;18.10;99.90;;;;;;8390308;28;19924;-72
2022/06/17 05:51:05;;;;;;;;;;;18.10;99.90;;;;;;8395039;28;19927;-71
2022/06/17 05:55:09;;;;;;;;;;;18.20;99.90;;;;;;8396446;28;19927;-72
2022/06/17 05:59:10;;;;;;;;;;;18.20;99.90;;;;;;8385585;28;19928;-71
2022/06/17 06:03:20;;;;;;;;;;;18.30;99.90;;;;;;8377857;28;19921;-72
2022/06/17 06:07:22;;;;;;;;;;;18.30;99.90;;;;;;8388738;28;20372;-71
2022/06/17 06:11:24;;;;;;;;;;;18.40;99.90;;;;;;8386002;28;19920;-71
2022/06/17 06:15:31;;;;;;;;;;;18.50;99.90;;;;;;8378198;28;19924;-71
2022/06/17 06:19:32;;;;;;;;;;;18.50;99.90;;;;;;8395542;28;20308;-71
2022/06/17 06:23:35;;;;;;;;;;;18.60;99.90;;;;;;8388674;28;20486;-71
2022/06/17 06:27:36;;;;;;;;;;;18.70;99.90;;;;;;8397265;28;19927;-71
2022/06/17 06:31:38;;;;;;;;;;;18.80;99.90;;;;;;8394353;28;19931;-71
2022/06/17 06:35:40;;;;;;;;;;;18.80;99.90;;;;;;8388664;28;20011;-71
2022/06/17 06:39:42;;;;;;;;;;;18.90;99.90;;;;;;8401512;28;20291;-72
2022/06/17 06:43:43;;;;;;;;;;;18.90;99.90;;;;;;8392130;28;20303;-71
2022/06/17 06:47:45;;;;;;;;;;;19.00;99.90;;;;;;8388944;28;19921;-71
2022/06/17 06:51:47;;;;;;;;;;;19.20;99.90;;;;;;8398534;28;19920;-71
2022/06/17 06:55:49;;;;;;;;;;;19.30;99.90;;;;;;8390664;28;19934;-71
2022/06/17 06:59:51;;;;;;;;;;;19.40;99.90;;;;;;8396524;28;19928;-72
2022/06/17 07:03:52;;;;;;;;;;;19.50;99.90;;;;;;8391566;28;19920;-72
2022/06/17 07:07:54;;;;;;;;;;;19.60;99.90;;;;;;8385316;28;19924;-72
2022/06/17 07:11:56;;;;;;;;;;;19.80;99.90;;;;;;8385156;28;19988;-71
2022/06/17 07:15:58;;;;;;;;;;;20.00;99.90;;;;;;8378625;28;19920;-72
2022/06/17 07:20:00;;;;;;;;;;;20.10;99.90;;;;;;8379465;28;19966;-72
2022/06/17 07:24:02;;;;;;;;;;;20.20;99.90;;;;;;8378025;28;19921;-72
2022/06/17 07:28:04;;;;;;;;;;;20.30;99.90;;;;;;8376021;28;19927;-72
2022/06/17 07:32:06;;;;;;;;;;;20.40;99.90;;;;;;8382336;28;19928;-71
2022/06/17 07:39:53;;;;;;;;;;;20.50;99.90;;;;;;8391326;28;21051;-71
2022/06/17 07:40:34;;;;;;;;;;;20.50;99.90;;;;;;8389961;28;19927;-71
2022/06/17 07:44:37;;;;;;;;;;;20.60;99.90;;;;;;8400094;28;20292;-71
2022/06/17 07:48:39;;;;;;;;;;;20.70;99.90;;;;;;8395441;28;19924;-72
2022/06/17 07:52:41;;;;;;;;;;;20.70;99.90;;;;;;8396271;28;19927;-71
2022/06/17 07:56:43;;;;;;;;;;;20.80;99.90;;;;;;8402467;28;19927;-71
2022/06/17 08:00:45;;;;;;;;;;;20.80;99.90;;;;;;8393565;28;19936;-71
2022/06/17 08:04:47;;;;;;;;;;;21.00;99.90;;;;;;8388307;28;19935;-71
2022/06/17 08:08:49;;;;;;;;;;;21.00;99.90;;;;;;8401951;28;20001;-71
2022/06/17 08:12:50;;;;;;;;;;;21.10;99.90;;;;;;8376963;28;19951;-71
2022/06/17 08:16:52;;;;;;;;;;;21.20;99.90;;;;;;8357219;28;19944;-71
2022/06/17 08:20:54;;;;;;;;;;;21.20;99.90;;;;;;8369713;28;20230;-71
2022/06/17 08:24:56;;;;;;;;;;;21.30;99.90;;;;;;8364644;28;19997;-71
2022/06/17 08:28:57;;;;;;;;;;;21.40;99.90;;;;;;8368616;28;19924;-72
2022/06/17 08:32:59;;;;;;;;;;;21.50;99.90;;;;;;8358696;28;19924;-70
2022/06/17 08:37:01;;;;;;;;;;;21.60;99.90;;;;;;8377937;28;19940;-71
2022/06/17 08:41:08;;;;;;;;;;;21.70;99.90;;;;;;8365515;28;19932;-70
2022/06/17 08:45:17;;;;;;;;;;;21.80;99.90;;;;;;8360394;28;19943;-71
2022/06/17 08:49:19;;;;;;;;;;;21.90;99.90;;;;;;8362037;28;19924;-71
2022/06/17 08:53:33;;;;;;;;;;;22.00;99.90;;;;;;8359041;28;20642;-70
2022/06/17 08:57:49;;;;;;;;;;;22.10;99.90;;;;;;8350418;28;19924;-70
2022/06/17 09:02:01;;;;;;;;;;;22.20;99.90;;;;;;8400386;28;20264;-71
2022/06/17 09:06:21;;;;;;;;;;;22.30;99.90;;;;;;8356555;28;20050;-70
2022/06/17 09:10:27;;;;;;;;;;;22.40;99.90;;;;;;8375651;28;19987;-70
2022/06/17 09:14:48;;;;;;;;;;;22.50;99.90;;;;;;8374937;28;19928;-71
2022/06/17 09:18:55;;;;;;;;;;;22.50;99.90;;;;;;8370556;28;19928;-71
2022/06/17 09:23:00;;;;;;;;;;;22.70;99.90;;;;;;8352368;28;19935;-70
2022/06/17 09:27:04;;;;;;;;;;;22.70;99.90;;;;;;8367090;28;19920;-70
2022/06/17 09:31:12;;;;;;;;;;;22.80;99.90;;;;;;8363507;28;19931;-70
2022/06/17 09:35:20;;;;;;;;;;;22.90;99.90;;;;;;8366667;28;25052;-69
2022/06/17 09:39:24;;;;;;;;;;;23.00;99.90;;;;;;8358377;28;20295;-70
2022/06/17 09:43:35;;;;;;;;;;;23.10;99.90;;;;;;8356372;28;19920;-70
2022/06/17 09:47:48;;;;;;;;;;;23.20;99.90;;;;;;8355537;28;19921;-70
2022/06/17 09:52:09;;;;;;;;;;;23.30;99.90;;;;;;8359878;28;19939;-71
2022/06/17 09:56:10;;;;;;;;;;;23.40;99.90;;;;;;8354075;28;19928;-70
2022/06/17 10:00:15;;;;;;;;;;;23.50;99.90;;;;;;8357013;28;20024;-71
2022/06/17 10:04:17;;;;;;;;;;;23.50;99.90;;;;;;8356577;28;20014;-70
2022/06/17 10:08:19;;;;;;;;;;;23.60;99.90;;;;;;8358281;28;19928;-70
2022/06/17 10:12:21;;;;;;;;;;;23.70;99.90;;;;;;8354755;28;19924;-70
2022/06/17 10:20:56;;;;;;;;;;;23.80;99.90;;;;;;8356705;28;19925;-70
2022/06/17 10:24:58;;;;;;;;;;;23.90;99.90;;;;;;8353484;28;19921;-70
2022/06/17 10:29:12;;;;;;;;;;;23.90;99.90;;;;;;8370922;28;19925;-71
2022/06/17 10:33:15;;;;;;;;;;;24.00;99.90;;;;;;8355266;28;19920;-70
2022/06/17 10:37:17;;;;;;;;;;;24.00;99.90;;;;;;8351262;28;19929;-69
2022/06/17 10:41:39;;;;;;;;;;;24.10;99.90;;;;;;8357132;28;20348;-70
2022/06/17 10:45:41;;;;;;;;;;;24.20;99.90;;;;;;8355453;28;20370;-70
2022/06/17 10:49:51;;;;;;;;;;;24.30;99.90;;;;;;8363831;28;19920;-71
2022/06/17 10:53:55;;;;;;;;;;;24.40;99.90;;;;;;8358444;28;20337;-71
2022/06/17 10:58:05;;;;;;;;;;;24.50;99.90;;;;;;8359521;28;19928;-71
2022/06/17 11:02:33;;;;;;;;;;;24.50;99.90;;;;;;8361728;28;19925;-70
2022/06/17 11:06:42;;;;;;;;;;;24.60;99.90;;;;;;8358379;28;19920;-70
2022/06/17 11:10:49;;;;;;;;;;;24.70;99.90;;;;;;8365708;28;20700;-71
2022/06/17 11:14:54;;;;;;;;;;;24.70;99.90;;;;;;8365468;28;19971;-70
2022/06/17 11:19:01;;;;;;;;;;;24.80;99.90;;;;;;8373869;28;19924;-71
2022/06/17 11:23:06;;;;;;;;;;;24.90;99.90;;;;;;8372181;28;19924;-70
2022/06/17 11:27:25;;;;;;;;;;;25.00;99.90;;;;;;8361538;28;20237;-71
2022/06/17 11:31:27;;;;;;;;;;;25.00;99.90;;;;;;8361712;28;19931;-71
2022/06/17 11:35:34;;;;;;;;;;;25.10;99.90;;;;;;8374962;28;19925;-70
2022/06/17 11:39:37;;;;;;;;;;;25.20;99.90;;;;;;8359094;28;19936;-71
2022/06/17 11:43:43;;;;;;;;;;;25.30;99.90;;;;;;8392300;27;19920;-71
2022/06/17 11:47:47;;;;;;;;;;;25.40;99.90;;;;;;8367464;28;19920;-71
2022/06/17 11:52:02;;;;;;;;;;;25.50;99.90;;;;;;8357831;28;19928;-70
2022/06/17 11:56:04;;;;;;;;;;;25.60;99.90;;;;;;8355514;28;25073;-71
2022/06/17 12:00:46;;;;;;;;;;;25.60;99.90;;;;;;8360578;28;19970;-71
2022/06/17 12:04:51;;;;;;;;;;;25.60;99.90;;;;;;8389882;28;19925;-70
2022/06/17 12:09:03;;;;;;;;;;;25.70;99.90;;;;;;8364509;28;19920;-71
2022/06/17 12:13:28;;;;;;;;;;;25.80;99.90;;;;;;8352900;28;19920;-71
2022/06/17 12:17:30;;;;;;;;;;;25.90;99.90;;;;;;8356490;28;25068;-71
2022/06/17 12:21:33;;;;;;;;;;;25.90;99.90;;;;;;8346802;28;19932;-71
2022/06/17 12:25:34;;;;;;;;;;;26.00;99.90;;;;;;8347413;28;19963;-72
2022/06/17 12:29:45;;;;;;;;;;;26.00;99.90;;;;;;8351636;28;19943;-71
2022/06/17 12:33:59;;;;;;;;;;;26.00;99.90;;;;;;8351499;28;19932;-71
2022/06/17 12:38:03;;;;;;;;;;;26.10;99.90;;;;;;8348161;28;19970;-71
2022/06/17 12:42:08;;;;;;;;;;;26.20;99.90;;;;;;8356561;28;19921;-71
2022/06/17 12:46:15;;;;;;;;;;;26.30;99.90;;;;;;8363747;28;19927;-71
2022/06/17 12:55:06;;;;;;;;;;;26.50;99.90;;;;;;8350416;28;19955;-73
2022/06/17 12:59:15;;;;;;;;;;;26.50;99.80;;;;;;8361675;28;19924;-72
2022/06/17 13:03:21;;;;;;;;;;;26.60;99.90;;;;;;8360485;28;19920;-71
2022/06/17 13:07:23;;;;;;;;;;;26.70;99.90;;;;;;8369533;28;25060;-71
2022/06/17 13:11:37;;;;;;;;;;;26.70;99.90;;;;;;8360525;28;19921;-71
2022/06/17 13:15:41;;;;;;;;;;;26.80;99.90;;;;;;8362189;28;20360;-71
2022/06/17 13:19:48;;;;;;;;;;;26.80;99.30;;;;;;8395157;27;19924;-71
2022/06/17 13:23:56;;;;;;;;;;;26.80;99.60;;;;;;8394566;27;19921;-71
2022/06/17 13:28:01;;;;;;;;;;;26.90;99.60;;;;;;8377301;28;19920;-71
2022/06/17 13:32:24;;;;;;;;;;;26.90;99.90;;;;;;8365828;28;19925;-71
2022/06/17 13:36:29;;;;;;;;;;;27.00;99.90;;;;;;8358485;28;19921;-72
2022/06/17 13:40:46;;;;;;;;;;;27.10;99.20;;;;;;8361994;28;20201;-71
2022/06/17 13:45:00;;;;;;;;;;;27.10;99.20;;;;;;8367103;28;19928;-71
2022/06/17 13:49:21;;;;;;;;;;;27.20;98.80;;;;;;8362311;28;19928;-71
2022/06/17 13:53:42;;;;;;;;;;;27.30;97.60;;;;;;8372722;28;19935;-71
2022/06/17 13:58:10;;;;;;;;;;;27.30;98.00;;;;;;8358904;28;20364;-72
2022/06/17 14:02:15;;;;;;;;;;;27.40;97.10;;;;;;8345214;28;19932;-71
2022/06/17 14:06:17;;;;;;;;;;;27.50;97.40;;;;;;8360533;28;19930;-71
2022/06/17 14:10:30;;;;;;;;;;;27.50;97.10;;;;;;8362495;28;20261;-71
2022/06/17 14:14:33;;;;;;;;;;;27.60;97.10;;;;;;8391051;28;19978;-71
2022/06/17 14:18:55;;;;;;;;;;;27.60;97.40;;;;;;8362274;28;19921;-71
2022/06/17 14:23:01;;;;;;;;;;;27.70;97.50;;;;;;8359046;28;25062;-71
2022/06/17 14:27:04;;;;;;;;;;;27.70;97.40;;;;;;8371823;28;24916;-71
2022/06/17 14:31:11;;;;;;;;;;;27.80;97.20;;;;;;8360865;28;19928;-71
2022/06/17 14:35:26;;;;;;;;;;;27.90;97.10;;;;;;8355355;28;20388;-71
2022/06/17 14:39:40;;;;;;;;;;;27.90;97.00;;;;;;8360483;28;20631;-71
2022/06/17 14:43:44;;;;;;;;;;;28.10;97.10;;;;;;8361931;28;25132;-70
2022/06/17 14:48:04;;;;;;;;;;;28.10;97.10;;;;;;8364988;28;19928;-71
2022/06/17 14:52:21;;;;;;;;;;;28.30;97.40;;;;;;8364323;28;19921;-71
2022/06/17 14:56:23;;;;;;;;;;;28.40;97.30;;;;;;8357325;28;19932;-72
2022/06/17 15:00:26;;;;;;;;;;;28.50;97.30;;;;;;8356660;28;19932;-71
2022/06/17 15:04:43;;;;;;;;;;;28.50;96.40;;;;;;8351868;28;25130;-71
2022/06/17 15:08:48;;;;;;;;;;;28.50;96.80;;;;;;8369883;28;19928;-71
2022/06/17 15:12:55;;;;;;;;;;;28.50;96.60;;;;;;8364908;28;20528;-71
2022/06/17 15:16:59;;;;;;;;;;;28.50;97.10;;;;;;8349602;28;20136;-71
2022/06/17 15:21:02;;;;;;;;;;;28.60;97.20;;;;;;8355033;28;19928;-71
2022/06/17 15:25:13;;;;;;;;;;;28.60;96.60;;;;;;8345571;28;19929;-71
2022/06/17 15:29:16;;;;;;;;;;;28.60;96.10;;;;;;8365912;28;19921;-71
2022/06/17 15:33:17;;;;;;;;;;;28.60;96.00;;;;;;8346804;28;19931;-71
2022/06/17 15:37:24;;;;;;;;;;;28.60;96.20;;;;;;8348095;28;19920;-71
2022/06/17 15:41:25;;;;;;;;;;;28.70;96.30;;;;;;8358023;28;19924;-71
2022/06/17 15:45:28;;;;;;;;;;;28.80;96.00;;;;;;8357904;28;20356;-71
2022/06/17 15:49:33;;;;;;;;;;;28.80;95.90;;;;;;8353644;28;19935;-71
2022/06/17 15:53:36;;;;;;;;;;;28.80;96.10;;;;;;8345538;28;19931;-71
2022/06/17 15:57:53;;;;;;;;;;;28.80;95.50;;;;;;8352192;28;20392;-71
2022/06/17 16:01:56;;;;;;;;;;;28.90;95.50;;;;;;8351275;28;19924;-71
2022/06/17 16:06:06;;;;;;;;;;;29.10;95.70;;;;;;8347834;28;19920;-71
2022/06/17 16:10:17;;;;;;;;;;;29.40;96.30;;;;;;8353227;28;19927;-71
2022/06/17 16:14:27;;;;;;;;;;;29.90;96.50;;;;;;8348816;28;19927;-71
2022/06/17 16:18:37;;;;;;;;;;;30.20;96.30;;;;;;8348637;28;19920;-71
2022/06/17 16:22:40;;;;;;;;;;;30.50;96.30;;;;;;8361149;28;20383;-71
2022/06/17 16:26:49;;;;;;;;;;;30.70;96.00;;;;;;8363856;28;19925;-71
2022/06/17 16:30:52;;;;;;;;;;;30.70;96.10;;;;;;8348020;28;20700;-71
2022/06/17 16:34:55;;;;;;;;;;;30.90;96.20;;;;;;8351753;28;20020;-71
2022/06/17 16:38:57;;;;;;;;;;;31.00;96.10;;;;;;8352555;28;19931;-71
2022/06/17 16:47:19;;;;;;;;;;;31.40;96.50;;;;;;8338390;28;19955;-71
2022/06/17 16:51:22;;;;;;;;;;;31.50;95.60;;;;;;8349806;28;20523;-71
2022/06/17 16:55:25;;;;;;;;;;;31.50;95.70;;;;;;8346796;28;19952;-71
2022/06/17 16:59:27;;;;;;;;;;;31.50;95.70;;;;;;8355558;28;20272;-71
2022/06/17 17:03:29;;;;;;;;;;;31.60;96.00;;;;;;8350714;28;24079;-71
2022/06/17 17:07:31;;;;;;;;;;;31.80;96.00;;;;;;8342830;28;20656;-71
2022/06/17 17:11:32;;;;;;;;;;;31.90;95.80;;;;;;8345239;28;19925;-71
2022/06/17 17:15:34;;;;;;;;;;;31.80;95.30;;;;;;8345874;28;19939;-71
2022/06/17 17:19:36;;;;;;;;;;;31.70;95.60;;;;;;8349055;28;19932;-71
2022/06/17 17:23:40;;;;;;;;;;;31.80;95.80;;;;;;8349312;28;19931;-71
2022/06/17 17:27:41;;;;;;;;;;;31.80;96.00;;;;;;8352266;28;20619;-71
2022/06/17 17:31:43;;;;;;;;;;;31.70;95.90;;;;;;8381957;28;19929;-71
2022/06/17 17:35:45;;;;;;;;;;;31.60;95.70;;;;;;8347691;28;19958;-71
2022/06/17 17:39:47;;;;;;;;;;;31.40;95.40;;;;;;8354649;28;19920;-71
2022/06/17 17:43:49;;;;;;;;;;;31.10;95.00;;;;;;8363740;28;19935;-71
2022/06/17 17:47:52;;;;;;;;;;;30.90;94.70;;;;;;8350979;28;19929;-71
2022/06/17 17:51:54;;;;;;;;;;;30.70;94.40;;;;;;8355893;28;25132;-71
2022/06/17 17:55:55;;;;;;;;;;;30.50;94.30;;;;;;8353586;28;19928;-72
2022/06/17 17:59:58;;;;;;;;;;;30.30;94.20;;;;;;8353711;28;19932;-72
2022/06/17 18:04:00;;;;;;;;;;;30.20;94.30;;;;;;8354669;28;19936;-72
2022/06/17 18:08:01;;;;;;;;;;;30.10;94.40;;;;;;8388707;28;20771;-72
2022/06/17 18:12:04;;;;;;;;;;;30.10;94.20;;;;;;8360217;28;19924;-72
2022/06/17 18:16:06;;;;;;;;;;;30.00;94.10;;;;;;8356550;28;24072;-72
2022/06/17 18:20:12;;;;;;;;;;;29.90;94.00;;;;;;8358157;28;20324;-72
2022/06/17 18:24:15;;;;;;;;;;;29.80;94.00;;;;;;8356422;28;19924;-72
2022/06/17 18:28:17;;;;;;;;;;;29.70;93.90;;;;;;8353720;28;19927;-72
2022/06/17 18:32:20;;;;;;;;;;;29.60;93.80;;;;;;8354868;28;19921;-72
2022/06/17 18:36:22;;;;;;;;;;;29.60;93.80;;;;;;8353808;28;19924;-72
2022/06/17 18:40:29;;;;;;;;;;;29.50;93.80;;;;;;8352047;28;19964;-72
2022/06/17 18:44:31;;;;;;;;;;;29.50;93.90;;;;;;8351342;28;19935;-72
2022/06/17 18:48:33;;;;;;;;;;;29.40;93.90;;;;;;8352828;28;19986;-72
2022/06/17 18:52:34;;;;;;;;;;;29.30;93.90;;;;;;8355054;28;19929;-72
2022/06/17 18:56:37;;;;;;;;;;;29.20;94.00;;;;;;8350265;28;19947;-72
2022/06/17 19:00:43;;;;;;;;;;;29.10;94.10;;;;;;8354157;28;19921;-72
2022/06/17 19:04:46;;;;;;;;;;;29.00;94.10;;;;;;8353592;28;20383;-73
2022/06/17 19:17:33;;;;;;;;;;;28.80;95.00;;;;;;8350408;28;19924;-72
2022/06/17 19:21:36;;;;;;;;;;;28.70;95.00;;;;;;8359900;28;20011;-72
2022/06/17 19:25:37;;;;;;;;;;;28.50;95.00;;;;;;8355920;28;19920;-72
2022/06/17 19:29:39;;;;;;;;;;;28.50;95.30;;;;;;8355135;28;19921;-72
2022/06/17 19:33:41;;;;;;;;;;;28.30;95.50;;;;;;8360718;28;19932;-72
2022/06/17 19:37:43;;;;;;;;;;;28.20;95.60;;;;;;8351466;28;19961;-72
2022/06/17 19:41:56;;;;;;;;;;;28.00;95.70;;;;;;8353852;28;19928;-72
2022/06/17 19:45:57;;;;;;;;;;;27.90;95.70;;;;;;8352776;28;20400;-72
2022/06/17 19:49:59;;;;;;;;;;;27.80;95.80;;;;;;8353708;28;19920;-72
2022/06/17 19:54:01;;;;;;;;;;;27.60;96.00;;;;;;8362071;28;19924;-72
2022/06/17 19:58:06;;;;;;;;;;;27.50;96.20;;;;;;8361447;28;19924;-72
2022/06/17 20:02:16;;;;;;;;;;;27.40;96.30;;;;;;8353991;28;19935;-72
2022/06/17 20:06:17;;;;;;;;;;;27.30;96.40;;;;;;8346718;28;20136;-72
2022/06/17 20:10:20;;;;;;;;;;;27.10;96.50;;;;;;8348768;28;19920;-72
2022/06/17 20:14:24;;;;;;;;;;;27.00;96.60;;;;;;8351099;28;24544;-72
2022/06/17 20:18:26;;;;;;;;;;;26.90;96.70;;;;;;8351341;28;19928;-72
2022/06/17 20:22:30;;;;;;;;;;;26.80;96.80;;;;;;8346755;28;19924;-72
2022/06/17 20:26:31;;;;;;;;;;;26.70;96.90;;;;;;8349460;28;19925;-72
2022/06/17 20:30:53;;;;;;;;;;;26.50;96.90;;;;;;8378129;28;19927;-72
2022/06/17 20:39:59;;;;;;;;;;;26.30;97.20;;;;;;8349041;28;19920;-72
2022/06/17 20:44:01;;;;;;;;;;;26.20;97.30;;;;;;8347741;28;19921;-72
2022/06/17 20:52:23;;;;;;;;;;;26.00;97.50;;;;;;8346375;28;19953;-72
2022/06/17 20:56:27;;;;;;;;;;;25.90;97.50;;;;;;8343007;28;19936;-72
2022/06/17 21:00:29;;;;;;;;;;;25.80;97.50;;;;;;8357986;28;20208;-72
2022/06/17 21:04:46;;;;;;;;;;;25.70;97.50;;;;;;8371667;28;20244;-72
2022/06/17 21:08:50;;;;;;;;;;;25.60;97.60;;;;;;8382031;28;19924;-72
2022/06/17 21:12:52;;;;;;;;;;;25.50;97.60;;;;;;8392828;28;19920;-72
2022/06/17 21:16:53;;;;;;;;;;;25.40;97.70;;;;;;8385677;28;20004;-72
2022/06/17 21:20:56;;;;;;;;;;;25.30;97.80;;;;;;8378494;28;19962;-72
2022/06/17 21:24:58;;;;;;;;;;;25.20;97.90;;;;;;8384024;28;20442;-71
2022/06/17 21:29:00;;;;;;;;;;;25.20;98.00;;;;;;8388996;28;19927;-72
2022/06/17 21:33:02;;;;;;;;;;;25.10;98.00;;;;;;8385002;28;19935;-72
2022/06/17 21:37:04;;;;;;;;;;;25.00;98.00;;;;;;8391537;28;20307;-72
2022/06/17 21:41:09;;;;;;;;;;;24.90;98.10;;;;;;8384180;28;20466;-72
2022/06/17 21:45:15;;;;;;;;;;;24.80;98.20;;;;;;8382414;28;19931;-72
2022/06/17 21:49:17;;;;;;;;;;;24.70;98.20;;;;;;8355693;28;19921;-72
2022/06/17 21:53:27;;;;;;;;;;;24.60;98.30;;;;;;8356682;28;21424;-72
2022/06/17 21:57:32;;;;;;;;;;;24.50;98.30;;;;;;8359202;28;20313;-72
2022/06/17 22:01:33;;;;;;;;;;;24.50;98.50;;;;;;8345241;28;19928;-72
2022/06/17 22:05:35;;;;;;;;;;;24.40;98.50;;;;;;8345049;28;20316;-72
2022/06/17 22:09:37;;;;;;;;;;;24.40;98.60;;;;;;8343845;28;20244;-71
2022/06/17 22:13:39;;;;;;;;;;;24.30;98.60;;;;;;8342994;28;19920;-72
2022/06/17 22:17:40;;;;;;;;;;;24.20;98.70;;;;;;8344817;28;19929;-71
2022/06/17 22:21:43;;;;;;;;;;;24.20;98.80;;;;;;8339032;28;19929;-72
2022/06/17 22:25:45;;;;;;;;;;;24.10;98.80;;;;;;8342395;28;19929;-71
2022/06/17 22:29:47;;;;;;;;;;;24.00;98.80;;;;;;8348382;28;19929;-72
2022/06/17 22:33:48;;;;;;;;;;;24.00;98.80;;;;;;8334392;28;19987;-71
2022/06/17 22:37:53;;;;;;;;;;;23.90;98.80;;;;;;8346948;28;19932;-71
2022/06/17 22:41:56;;;;;;;;;;;23.80;98.80;;;;;;8348795;28;19924;-71
2022/06/17 22:45:58;;;;;;;;;;;23.70;98.80;;;;;;8339313;28;20150;-71
2022/06/17 22:50:01;;;;;;;;;;;23.70;98.90;;;;;;8379541;28;20300;-72
2022/06/17 22:54:02;;;;;;;;;;;23.60;99.00;;;;;;8370244;28;19958;-72
2022/06/17 22:58:04;;;;;;;;;;;23.50;99.10;;;;;;8406995;28;19924;-72
2022/06/17 23:02:06;;;;;;;;;;;23.40;99.10;;;;;;8389617;28;19920;-71
2022/06/17 23:06:09;;;;;;;;;;;23.30;99.20;;;;;;8381534;28;19924;-71
2022/06/17 23:10:16;;;;;;;;;;;23.30;99.30;;;;;;8372504;28;19975;-71
2022/06/17 23:14:17;;;;;;;;;;;23.20;99.40;;;;;;8384470;28;19928;-71
2022/06/17 23:22:41;;;;;;;;;;;23.10;99.50;;;;;;8384038;28;20288;-71
2022/06/17 23:26:42;;;;;;;;;;;23.10;99.60;;;;;;8384434;28;19928;-71
2022/06/17 23:30:44;;;;;;;;;;;23.00;99.60;;;;;;8386812;28;20316;-71
2022/06/17 23:34:51;;;;;;;;;;;23.00;99.70;;;;;;8380684;28;19931;-72
2022/06/17 23:38:53;;;;;;;;;;;22.90;99.80;;;;;;8387844;28;20387;-71
2022/06/17 23:42:54;;;;;;;;;;;22.80;99.80;;;;;;8385282;28;20228;-71
2022/06/17 23:46:56;;;;;;;;;;;22.90;99.90;;;;;;8384063;28;20387;-71
2022/06/17 23:51:00;;;;;;;;;;;22.80;99.90;;;;;;8389785;28;20362;-72
2022/06/17 23:55:02;;;;;;;;;;;22.90;99.90;;;;;;8379213;28;19929;-71
2022/06/17 23:59:09;;;;;;;;;;;22.80;99.90;;;;;;8391877;28;19920;-71
